<?xml version="1.0" encoding="UTF-8" standalone="no" ?>
<gpx xmlns="http://www.topografix.com/GPX/1/1" xmlns:xsi="http://www.w3.org/2001/XMLSchema-instance" xsi:schemaLocation="http://www.topografix.com/GPX/1/1 http://www.topografix.com/GPX/1/1/gpx.xsd" version="1.1" creator="VisuGPX - https://www.visugpx.com">
  <metadata>
    <name>Ensemble des parcours VTT</name>
    <desc><![CDATA[Ensemble des parcours disponible à la base de plein air du LAmbon.]]></desc>
  </metadata>
  <trk>
    <name><![CDATA[20180720083652-PCCTw]]></name>
    <trkseg>
      <trkpt lat="46.30061" lon="-0.20904">
        <ele>124</ele>
      </trkpt>
      <trkpt lat="46.30031" lon="-0.20971">
        <ele>125</ele>
      </trkpt>
      <trkpt lat="46.29991" lon="-0.21044">
        <ele>122</ele>
      </trkpt>
      <trkpt lat="46.29962" lon="-0.21097">
        <ele>126</ele>
      </trkpt>
      <trkpt lat="46.29948" lon="-0.21132">
        <ele>126</ele>
      </trkpt>
      <trkpt lat="46.29941" lon="-0.21174">
        <ele>129</ele>
      </trkpt>
      <trkpt lat="46.2995" lon="-0.21233">
        <ele>131</ele>
      </trkpt>
      <trkpt lat="46.29972" lon="-0.21289">
        <ele>134</ele>
      </trkpt>
      <trkpt lat="46.29996" lon="-0.21326">
        <ele>137</ele>
      </trkpt>
      <trkpt lat="46.30002" lon="-0.21346">
        <ele>139</ele>
      </trkpt>
      <trkpt lat="46.29974" lon="-0.21367">
        <ele>135</ele>
      </trkpt>
      <trkpt lat="46.2996" lon="-0.2139">
        <ele>134</ele>
      </trkpt>
      <trkpt lat="46.29954" lon="-0.21483">
        <ele>134</ele>
      </trkpt>
      <trkpt lat="46.29957" lon="-0.2163">
        <ele>137</ele>
      </trkpt>
      <trkpt lat="46.29947" lon="-0.21701">
        <ele>139</ele>
      </trkpt>
      <trkpt lat="46.29941" lon="-0.21733">
        <ele>139</ele>
      </trkpt>
      <trkpt lat="46.3" lon="-0.21716">
        <ele>142</ele>
      </trkpt>
      <trkpt lat="46.30055" lon="-0.21686">
        <ele>142</ele>
      </trkpt>
      <trkpt lat="46.30119" lon="-0.21631">
        <ele>143</ele>
      </trkpt>
      <trkpt lat="46.3017" lon="-0.21669">
        <ele>141</ele>
      </trkpt>
      <trkpt lat="46.30236" lon="-0.21734">
        <ele>141</ele>
      </trkpt>
      <trkpt lat="46.30276" lon="-0.21787">
        <ele>141</ele>
      </trkpt>
      <trkpt lat="46.30316" lon="-0.219">
        <ele>140</ele>
      </trkpt>
      <trkpt lat="46.30332" lon="-0.21956">
        <ele>139</ele>
      </trkpt>
      <trkpt lat="46.30327" lon="-0.22092">
        <ele>137</ele>
      </trkpt>
      <trkpt lat="46.30424" lon="-0.22093">
        <ele>139</ele>
      </trkpt>
      <trkpt lat="46.30437" lon="-0.22097">
        <ele>139</ele>
      </trkpt>
      <trkpt lat="46.30486" lon="-0.22122">
        <ele>138</ele>
      </trkpt>
      <trkpt lat="46.30517" lon="-0.22137">
        <ele>135</ele>
      </trkpt>
      <trkpt lat="46.3054" lon="-0.22138">
        <ele>135</ele>
      </trkpt>
      <trkpt lat="46.30552" lon="-0.22119">
        <ele>135</ele>
      </trkpt>
      <trkpt lat="46.30572" lon="-0.2211">
        <ele>135</ele>
      </trkpt>
      <trkpt lat="46.30624" lon="-0.22112">
        <ele>132</ele>
      </trkpt>
      <trkpt lat="46.30646" lon="-0.22117">
        <ele>132</ele>
      </trkpt>
      <trkpt lat="46.30662" lon="-0.22114">
        <ele>132</ele>
      </trkpt>
      <trkpt lat="46.30682" lon="-0.22128">
        <ele>133</ele>
      </trkpt>
      <trkpt lat="46.30691" lon="-0.22135">
        <ele>133</ele>
      </trkpt>
      <trkpt lat="46.30713" lon="-0.22139">
        <ele>134</ele>
      </trkpt>
      <trkpt lat="46.3074" lon="-0.22131">
        <ele>134</ele>
      </trkpt>
      <trkpt lat="46.30794" lon="-0.22133">
        <ele>138</ele>
      </trkpt>
      <trkpt lat="46.30844" lon="-0.22136">
        <ele>142</ele>
      </trkpt>
      <trkpt lat="46.30853" lon="-0.22143">
        <ele>142</ele>
      </trkpt>
      <trkpt lat="46.3085" lon="-0.22143">
        <ele>142</ele>
        <time>2009-03-19T10:28:45Z</time>
      </trkpt>
      <trkpt lat="46.30851" lon="-0.22164">
        <ele>142</ele>
        <time>2009-03-19T10:28:50Z</time>
      </trkpt>
      <trkpt lat="46.3085" lon="-0.22194">
        <ele>142</ele>
        <time>2009-03-19T10:28:55Z</time>
      </trkpt>
      <trkpt lat="46.30849" lon="-0.2223">
        <ele>142</ele>
        <time>2009-03-19T10:29:00Z</time>
      </trkpt>
      <trkpt lat="46.30851" lon="-0.22268">
        <ele>141</ele>
        <time>2009-03-19T10:29:05Z</time>
      </trkpt>
      <trkpt lat="46.30854" lon="-0.22311">
        <ele>141</ele>
        <time>2009-03-19T10:29:10Z</time>
      </trkpt>
      <trkpt lat="46.30857" lon="-0.22356">
        <ele>139</ele>
        <time>2009-03-19T10:29:15Z</time>
      </trkpt>
      <trkpt lat="46.30859" lon="-0.22401">
        <ele>139</ele>
        <time>2009-03-19T10:29:20Z</time>
      </trkpt>
      <trkpt lat="46.30862" lon="-0.22446">
        <ele>138</ele>
        <time>2009-03-19T10:29:25Z</time>
      </trkpt>
      <trkpt lat="46.30866" lon="-0.22481">
        <ele>138</ele>
        <time>2009-03-19T10:29:30Z</time>
      </trkpt>
      <trkpt lat="46.30868" lon="-0.22505">
        <ele>138</ele>
        <time>2009-03-19T10:29:35Z</time>
      </trkpt>
      <trkpt lat="46.30871" lon="-0.22521">
        <ele>138</ele>
        <time>2009-03-19T10:29:40Z</time>
      </trkpt>
      <trkpt lat="46.30872" lon="-0.22533">
        <ele>138</ele>
        <time>2009-03-19T10:29:45Z</time>
      </trkpt>
      <trkpt lat="46.30872" lon="-0.22546">
        <ele>138</ele>
        <time>2009-03-19T10:29:50Z</time>
      </trkpt>
      <trkpt lat="46.30875" lon="-0.22562">
        <ele>139</ele>
        <time>2009-03-19T10:29:55Z</time>
      </trkpt>
      <trkpt lat="46.30878" lon="-0.2258">
        <ele>139</ele>
        <time>2009-03-19T10:30:00Z</time>
      </trkpt>
      <trkpt lat="46.3088" lon="-0.22599">
        <ele>138</ele>
        <time>2009-03-19T10:30:05Z</time>
      </trkpt>
      <trkpt lat="46.30885" lon="-0.22623">
        <ele>138</ele>
        <time>2009-03-19T10:30:10Z</time>
      </trkpt>
      <trkpt lat="46.3089" lon="-0.22647">
        <ele>138</ele>
        <time>2009-03-19T10:30:15Z</time>
      </trkpt>
      <trkpt lat="46.30895" lon="-0.22672">
        <ele>137</ele>
        <time>2009-03-19T10:30:20Z</time>
      </trkpt>
      <trkpt lat="46.30902" lon="-0.22697">
        <ele>137</ele>
        <time>2009-03-19T10:30:25Z</time>
      </trkpt>
      <trkpt lat="46.3091" lon="-0.2272">
        <ele>136</ele>
        <time>2009-03-19T10:30:30Z</time>
      </trkpt>
      <trkpt lat="46.30916" lon="-0.22738">
        <ele>136</ele>
        <time>2009-03-19T10:30:35Z</time>
      </trkpt>
      <trkpt lat="46.30919" lon="-0.22751">
        <ele>135</ele>
        <time>2009-03-19T10:30:40Z</time>
      </trkpt>
      <trkpt lat="46.30923" lon="-0.22757">
        <ele>134</ele>
        <time>2009-03-19T10:30:45Z</time>
      </trkpt>
      <trkpt lat="46.30926" lon="-0.22756">
        <ele>134</ele>
        <time>2009-03-19T10:30:50Z</time>
      </trkpt>
      <trkpt lat="46.30927" lon="-0.22756">
        <ele>134</ele>
        <time>2009-03-19T10:30:55Z</time>
      </trkpt>
      <trkpt lat="46.30929" lon="-0.2276">
        <ele>134</ele>
        <time>2009-03-19T10:31:00Z</time>
      </trkpt>
      <trkpt lat="46.30933" lon="-0.22779">
        <ele>133</ele>
        <time>2009-03-19T10:31:05Z</time>
      </trkpt>
      <trkpt lat="46.30937" lon="-0.228">
        <ele>132</ele>
        <time>2009-03-19T10:31:10Z</time>
      </trkpt>
      <trkpt lat="46.30941" lon="-0.22822">
        <ele>132</ele>
        <time>2009-03-19T10:31:15Z</time>
      </trkpt>
      <trkpt lat="46.30948" lon="-0.2284">
        <ele>131</ele>
        <time>2009-03-19T10:31:20Z</time>
      </trkpt>
      <trkpt lat="46.30943" lon="-0.22855">
        <ele>131</ele>
        <time>2009-03-19T10:31:25Z</time>
      </trkpt>
      <trkpt lat="46.30934" lon="-0.22867">
        <ele>131</ele>
        <time>2009-03-19T10:31:30Z</time>
      </trkpt>
      <trkpt lat="46.30927" lon="-0.22884">
        <ele>130</ele>
        <time>2009-03-19T10:31:35Z</time>
      </trkpt>
      <trkpt lat="46.30931" lon="-0.22903">
        <ele>130</ele>
        <time>2009-03-19T10:31:40Z</time>
      </trkpt>
      <trkpt lat="46.3094" lon="-0.22918">
        <ele>129</ele>
        <time>2009-03-19T10:31:45Z</time>
      </trkpt>
      <trkpt lat="46.30948" lon="-0.22929">
        <ele>128</ele>
        <time>2009-03-19T10:31:50Z</time>
      </trkpt>
      <trkpt lat="46.30955" lon="-0.22941">
        <ele>128</ele>
        <time>2009-03-19T10:31:55Z</time>
      </trkpt>
      <trkpt lat="46.30964" lon="-0.22956">
        <ele>128</ele>
        <time>2009-03-19T10:32:00Z</time>
      </trkpt>
      <trkpt lat="46.30971" lon="-0.22973">
        <ele>127</ele>
        <time>2009-03-19T10:32:05Z</time>
      </trkpt>
      <trkpt lat="46.30981" lon="-0.22988">
        <ele>127</ele>
        <time>2009-03-19T10:32:10Z</time>
      </trkpt>
      <trkpt lat="46.30989" lon="-0.23">
        <ele>127</ele>
        <time>2009-03-19T10:32:15Z</time>
      </trkpt>
      <trkpt lat="46.31002" lon="-0.23013">
        <ele>126</ele>
        <time>2009-03-19T10:32:20Z</time>
      </trkpt>
      <trkpt lat="46.31014" lon="-0.23027">
        <ele>125</ele>
        <time>2009-03-19T10:32:25Z</time>
      </trkpt>
      <trkpt lat="46.31025" lon="-0.23036">
        <ele>125</ele>
        <time>2009-03-19T10:32:30Z</time>
      </trkpt>
      <trkpt lat="46.31035" lon="-0.23043">
        <ele>125</ele>
        <time>2009-03-19T10:32:35Z</time>
      </trkpt>
      <trkpt lat="46.31052" lon="-0.2305">
        <ele>125</ele>
        <time>2009-03-19T10:32:40Z</time>
      </trkpt>
      <trkpt lat="46.31067" lon="-0.23059">
        <ele>125</ele>
        <time>2009-03-19T10:32:45Z</time>
      </trkpt>
      <trkpt lat="46.31081" lon="-0.23072">
        <ele>124</ele>
        <time>2009-03-19T10:32:50Z</time>
      </trkpt>
      <trkpt lat="46.31094" lon="-0.2309">
        <ele>124</ele>
        <time>2009-03-19T10:32:55Z</time>
      </trkpt>
      <trkpt lat="46.31107" lon="-0.23107">
        <ele>125</ele>
        <time>2009-03-19T10:33:00Z</time>
      </trkpt>
      <trkpt lat="46.3111" lon="-0.23128">
        <ele>125</ele>
        <time>2009-03-19T10:33:05Z</time>
      </trkpt>
      <trkpt lat="46.31095" lon="-0.23148">
        <ele>124</ele>
        <time>2009-03-19T10:33:10Z</time>
      </trkpt>
      <trkpt lat="46.31079" lon="-0.23175">
        <ele>123</ele>
        <time>2009-03-19T10:33:15Z</time>
      </trkpt>
      <trkpt lat="46.31063" lon="-0.23191">
        <ele>123</ele>
        <time>2009-03-19T10:33:20Z</time>
      </trkpt>
      <trkpt lat="46.31048" lon="-0.23206">
        <ele>122</ele>
        <time>2009-03-19T10:33:25Z</time>
      </trkpt>
      <trkpt lat="46.31035" lon="-0.23242">
        <ele>122</ele>
        <time>2009-03-19T10:33:30Z</time>
      </trkpt>
      <trkpt lat="46.31037" lon="-0.23288">
        <ele>120</ele>
        <time>2009-03-19T10:33:35Z</time>
      </trkpt>
      <trkpt lat="46.31051" lon="-0.23333">
        <ele>120</ele>
        <time>2009-03-19T10:33:40Z</time>
      </trkpt>
      <trkpt lat="46.31064" lon="-0.23383">
        <ele>119</ele>
        <time>2009-03-19T10:33:45Z</time>
      </trkpt>
      <trkpt lat="46.31061" lon="-0.23433">
        <ele>118</ele>
        <time>2009-03-19T10:33:50Z</time>
      </trkpt>
      <trkpt lat="46.31065" lon="-0.23469">
        <ele>118</ele>
        <time>2009-03-19T10:33:55Z</time>
      </trkpt>
      <trkpt lat="46.31055" lon="-0.2348">
        <ele>118</ele>
        <time>2009-03-19T10:34:00Z</time>
      </trkpt>
      <trkpt lat="46.31038" lon="-0.23498">
        <ele>117</ele>
        <time>2009-03-19T10:34:05Z</time>
      </trkpt>
      <trkpt lat="46.31023" lon="-0.23522">
        <ele>117</ele>
        <time>2009-03-19T10:34:10Z</time>
      </trkpt>
      <trkpt lat="46.31004" lon="-0.23547">
        <ele>117</ele>
        <time>2009-03-19T10:34:15Z</time>
      </trkpt>
      <trkpt lat="46.30976" lon="-0.23551">
        <ele>118</ele>
        <time>2009-03-19T10:34:20Z</time>
      </trkpt>
      <trkpt lat="46.30949" lon="-0.23547">
        <ele>119</ele>
        <time>2009-03-19T10:34:25Z</time>
      </trkpt>
      <trkpt lat="46.30924" lon="-0.23551">
        <ele>119</ele>
        <time>2009-03-19T10:34:30Z</time>
      </trkpt>
      <trkpt lat="46.30901" lon="-0.2357">
        <ele>123</ele>
        <time>2009-03-19T10:34:35Z</time>
      </trkpt>
      <trkpt lat="46.30884" lon="-0.23589">
        <ele>124</ele>
        <time>2009-03-19T10:34:40Z</time>
      </trkpt>
      <trkpt lat="46.30867" lon="-0.23607">
        <ele>125</ele>
        <time>2009-03-19T10:34:45Z</time>
      </trkpt>
      <trkpt lat="46.30852" lon="-0.23617">
        <ele>125</ele>
        <time>2009-03-19T10:34:50Z</time>
      </trkpt>
      <trkpt lat="46.30853" lon="-0.23598">
        <ele>125</ele>
        <time>2009-03-19T10:34:55Z</time>
      </trkpt>
      <trkpt lat="46.30854" lon="-0.23574">
        <ele>125</ele>
        <time>2009-03-19T10:35:00Z</time>
      </trkpt>
      <trkpt lat="46.30852" lon="-0.23547">
        <ele>125</ele>
        <time>2009-03-19T10:35:05Z</time>
      </trkpt>
      <trkpt lat="46.30852" lon="-0.23519">
        <ele>125</ele>
        <time>2009-03-19T10:35:10Z</time>
      </trkpt>
      <trkpt lat="46.30853" lon="-0.23489">
        <ele>125</ele>
        <time>2009-03-19T10:35:15Z</time>
      </trkpt>
      <trkpt lat="46.30852" lon="-0.23459">
        <ele>124</ele>
        <time>2009-03-19T10:35:20Z</time>
      </trkpt>
      <trkpt lat="46.30847" lon="-0.2343">
        <ele>125</ele>
        <time>2009-03-19T10:35:25Z</time>
      </trkpt>
      <trkpt lat="46.3084" lon="-0.23402">
        <ele>125</ele>
        <time>2009-03-19T10:35:30Z</time>
      </trkpt>
      <trkpt lat="46.30831" lon="-0.23375">
        <ele>128</ele>
        <time>2009-03-19T10:35:35Z</time>
      </trkpt>
      <trkpt lat="46.30817" lon="-0.23348">
        <ele>128</ele>
        <time>2009-03-19T10:35:40Z</time>
      </trkpt>
      <trkpt lat="46.30798" lon="-0.23324">
        <ele>128</ele>
        <time>2009-03-19T10:35:45Z</time>
      </trkpt>
      <trkpt lat="46.3078" lon="-0.23302">
        <ele>129</ele>
        <time>2009-03-19T10:35:50Z</time>
      </trkpt>
      <trkpt lat="46.30762" lon="-0.23283">
        <ele>129</ele>
        <time>2009-03-19T10:35:55Z</time>
      </trkpt>
      <trkpt lat="46.30743" lon="-0.23267">
        <ele>133</ele>
        <time>2009-03-19T10:36:00Z</time>
      </trkpt>
      <trkpt lat="46.30726" lon="-0.23252">
        <ele>134</ele>
        <time>2009-03-19T10:36:05Z</time>
      </trkpt>
      <trkpt lat="46.30704" lon="-0.23232">
        <ele>133</ele>
        <time>2009-03-19T10:36:10Z</time>
      </trkpt>
      <trkpt lat="46.30686" lon="-0.23198">
        <ele>132</ele>
        <time>2009-03-19T10:36:15Z</time>
      </trkpt>
      <trkpt lat="46.30669" lon="-0.23158">
        <ele>130</ele>
        <time>2009-03-19T10:36:20Z</time>
      </trkpt>
      <trkpt lat="46.3065" lon="-0.23116">
        <ele>130</ele>
        <time>2009-03-19T10:36:25Z</time>
      </trkpt>
      <trkpt lat="46.30633" lon="-0.23076">
        <ele>129</ele>
        <time>2009-03-19T10:36:30Z</time>
      </trkpt>
      <trkpt lat="46.30619" lon="-0.23045">
        <ele>129</ele>
        <time>2009-03-19T10:36:35Z</time>
      </trkpt>
      <trkpt lat="46.30606" lon="-0.23014">
        <ele>130</ele>
        <time>2009-03-19T10:36:40Z</time>
      </trkpt>
      <trkpt lat="46.30593" lon="-0.22985">
        <ele>130</ele>
        <time>2009-03-19T10:36:45Z</time>
      </trkpt>
      <trkpt lat="46.30582" lon="-0.22959">
        <ele>133</ele>
        <time>2009-03-19T10:36:50Z</time>
      </trkpt>
      <trkpt lat="46.3057" lon="-0.22937">
        <ele>133</ele>
        <time>2009-03-19T10:36:55Z</time>
      </trkpt>
      <trkpt lat="46.30552" lon="-0.22924">
        <ele>133</ele>
        <time>2009-03-19T10:37:00Z</time>
      </trkpt>
      <trkpt lat="46.30532" lon="-0.22913">
        <ele>133</ele>
        <time>2009-03-19T10:37:05Z</time>
      </trkpt>
      <trkpt lat="46.30513" lon="-0.22903">
        <ele>134</ele>
        <time>2009-03-19T10:37:10Z</time>
      </trkpt>
      <trkpt lat="46.30495" lon="-0.22893">
        <ele>136</ele>
        <time>2009-03-19T10:37:15Z</time>
      </trkpt>
      <trkpt lat="46.30477" lon="-0.22886">
        <ele>136</ele>
        <time>2009-03-19T10:37:20Z</time>
      </trkpt>
      <trkpt lat="46.30459" lon="-0.22885">
        <ele>137</ele>
        <time>2009-03-19T10:37:25Z</time>
      </trkpt>
      <trkpt lat="46.30441" lon="-0.22886">
        <ele>137</ele>
        <time>2009-03-19T10:37:30Z</time>
      </trkpt>
      <trkpt lat="46.30422" lon="-0.22886">
        <ele>138</ele>
        <time>2009-03-19T10:37:35Z</time>
      </trkpt>
      <trkpt lat="46.30404" lon="-0.22887">
        <ele>139</ele>
        <time>2009-03-19T10:37:40Z</time>
      </trkpt>
      <trkpt lat="46.30385" lon="-0.22886">
        <ele>139</ele>
        <time>2009-03-19T10:37:45Z</time>
      </trkpt>
      <trkpt lat="46.30364" lon="-0.22886">
        <ele>140</ele>
        <time>2009-03-19T10:37:50Z</time>
      </trkpt>
      <trkpt lat="46.30343" lon="-0.22885">
        <ele>140</ele>
        <time>2009-03-19T10:37:55Z</time>
      </trkpt>
      <trkpt lat="46.3032" lon="-0.22883">
        <ele>140</ele>
        <time>2009-03-19T10:38:00Z</time>
      </trkpt>
      <trkpt lat="46.30301" lon="-0.22879">
        <ele>140</ele>
        <time>2009-03-19T10:38:05Z</time>
      </trkpt>
      <trkpt lat="46.30284" lon="-0.22882">
        <ele>140</ele>
        <time>2009-03-19T10:38:10Z</time>
      </trkpt>
      <trkpt lat="46.30275" lon="-0.22913">
        <ele>140</ele>
        <time>2009-03-19T10:38:15Z</time>
      </trkpt>
      <trkpt lat="46.30266" lon="-0.22954">
        <ele>140</ele>
        <time>2009-03-19T10:38:20Z</time>
      </trkpt>
      <trkpt lat="46.30254" lon="-0.23001">
        <ele>140</ele>
        <time>2009-03-19T10:38:25Z</time>
      </trkpt>
      <trkpt lat="46.30237" lon="-0.23051">
        <ele>138</ele>
        <time>2009-03-19T10:38:30Z</time>
      </trkpt>
      <trkpt lat="46.30216" lon="-0.23101">
        <ele>137</ele>
        <time>2009-03-19T10:38:35Z</time>
      </trkpt>
      <trkpt lat="46.30193" lon="-0.23151">
        <ele>137</ele>
        <time>2009-03-19T10:38:40Z</time>
      </trkpt>
      <trkpt lat="46.3017" lon="-0.23201">
        <ele>136</ele>
        <time>2009-03-19T10:38:45Z</time>
      </trkpt>
      <trkpt lat="46.30146" lon="-0.23253">
        <ele>135</ele>
        <time>2009-03-19T10:38:50Z</time>
      </trkpt>
      <trkpt lat="46.30119" lon="-0.23306">
        <ele>134</ele>
        <time>2009-03-19T10:38:55Z</time>
      </trkpt>
      <trkpt lat="46.3009" lon="-0.2336">
        <ele>133</ele>
        <time>2009-03-19T10:39:00Z</time>
      </trkpt>
      <trkpt lat="46.30061" lon="-0.23413">
        <ele>132</ele>
        <time>2009-03-19T10:39:05Z</time>
      </trkpt>
      <trkpt lat="46.30028" lon="-0.23462">
        <ele>131</ele>
        <time>2009-03-19T10:39:10Z</time>
      </trkpt>
      <trkpt lat="46.29993" lon="-0.23503">
        <ele>131</ele>
        <time>2009-03-19T10:39:15Z</time>
      </trkpt>
      <trkpt lat="46.29956" lon="-0.23541">
        <ele>130</ele>
        <time>2009-03-19T10:39:20Z</time>
      </trkpt>
      <trkpt lat="46.29923" lon="-0.23588">
        <ele>128</ele>
        <time>2009-03-19T10:39:25Z</time>
      </trkpt>
      <trkpt lat="46.29915" lon="-0.23657">
        <ele>126</ele>
        <time>2009-03-19T10:39:30Z</time>
      </trkpt>
      <trkpt lat="46.2991" lon="-0.23728">
        <ele>124</ele>
        <time>2009-03-19T10:39:35Z</time>
      </trkpt>
      <trkpt lat="46.29898" lon="-0.23799">
        <ele>121</ele>
        <time>2009-03-19T10:39:40Z</time>
      </trkpt>
      <trkpt lat="46.29917" lon="-0.23843">
        <ele>122</ele>
        <time>2009-03-19T10:39:45Z</time>
      </trkpt>
      <trkpt lat="46.29951" lon="-0.23842">
        <ele>122</ele>
        <time>2009-03-19T10:39:50Z</time>
      </trkpt>
      <trkpt lat="46.29979" lon="-0.23846">
        <ele>123</ele>
        <time>2009-03-19T10:39:55Z</time>
      </trkpt>
      <trkpt lat="46.30009" lon="-0.23851">
        <ele>123</ele>
        <time>2009-03-19T10:40:00Z</time>
      </trkpt>
      <trkpt lat="46.30041" lon="-0.23856">
        <ele>122</ele>
        <time>2009-03-19T10:40:05Z</time>
      </trkpt>
      <trkpt lat="46.30062" lon="-0.2387">
        <ele>121</ele>
        <time>2009-03-19T10:40:10Z</time>
      </trkpt>
      <trkpt lat="46.3004" lon="-0.23896">
        <ele>120</ele>
        <time>2009-03-19T10:40:15Z</time>
      </trkpt>
      <trkpt lat="46.30013" lon="-0.23922">
        <ele>116</ele>
        <time>2009-03-19T10:40:20Z</time>
      </trkpt>
      <trkpt lat="46.29987" lon="-0.23955">
        <ele>114</ele>
        <time>2009-03-19T10:40:25Z</time>
      </trkpt>
      <trkpt lat="46.2996" lon="-0.23993">
        <ele>112</ele>
        <time>2009-03-19T10:40:30Z</time>
      </trkpt>
      <trkpt lat="46.29932" lon="-0.24035">
        <ele>109</ele>
        <time>2009-03-19T10:40:35Z</time>
      </trkpt>
      <trkpt lat="46.29901" lon="-0.2408">
        <ele>107</ele>
        <time>2009-03-19T10:40:40Z</time>
      </trkpt>
      <trkpt lat="46.29875" lon="-0.24113">
        <ele>105</ele>
        <time>2009-03-19T10:40:45Z</time>
      </trkpt>
      <trkpt lat="46.29849" lon="-0.24104">
        <ele>105</ele>
        <time>2009-03-19T10:40:50Z</time>
      </trkpt>
      <trkpt lat="46.29813" lon="-0.24082">
        <ele>104</ele>
        <time>2009-03-19T10:40:55Z</time>
      </trkpt>
      <trkpt lat="46.29775" lon="-0.24069">
        <ele>102</ele>
        <time>2009-03-19T10:41:00Z</time>
      </trkpt>
      <trkpt lat="46.29745" lon="-0.24093">
        <ele>102</ele>
        <time>2009-03-19T10:41:05Z</time>
      </trkpt>
      <trkpt lat="46.29729" lon="-0.24134">
        <ele>104</ele>
        <time>2009-03-19T10:41:10Z</time>
      </trkpt>
      <trkpt lat="46.29719" lon="-0.24169">
        <ele>106</ele>
        <time>2009-03-19T10:41:15Z</time>
      </trkpt>
      <trkpt lat="46.29724" lon="-0.24191">
        <ele>106</ele>
        <time>2009-03-19T10:41:20Z</time>
      </trkpt>
      <trkpt lat="46.29727" lon="-0.24207">
        <ele>107</ele>
        <time>2009-03-19T10:41:25Z</time>
      </trkpt>
      <trkpt lat="46.29725" lon="-0.24224">
        <ele>107</ele>
        <time>2009-03-19T10:41:30Z</time>
      </trkpt>
      <trkpt lat="46.29727" lon="-0.2424">
        <ele>107</ele>
        <time>2009-03-19T10:41:35Z</time>
      </trkpt>
      <trkpt lat="46.29728" lon="-0.24255">
        <ele>108</ele>
        <time>2009-03-19T10:41:40Z</time>
      </trkpt>
      <trkpt lat="46.2972" lon="-0.2426">
        <ele>109</ele>
        <time>2009-03-19T10:41:45Z</time>
      </trkpt>
      <trkpt lat="46.29713" lon="-0.24256">
        <ele>110</ele>
        <time>2009-03-19T10:41:50Z</time>
      </trkpt>
      <trkpt lat="46.29707" lon="-0.24249">
        <ele>108</ele>
        <time>2009-03-19T10:41:55Z</time>
      </trkpt>
      <trkpt lat="46.29698" lon="-0.24247">
        <ele>109</ele>
        <time>2009-03-19T10:42:00Z</time>
      </trkpt>
      <trkpt lat="46.29689" lon="-0.2424">
        <ele>110</ele>
        <time>2009-03-19T10:42:05Z</time>
      </trkpt>
      <trkpt lat="46.29677" lon="-0.24232">
        <ele>110</ele>
        <time>2009-03-19T10:42:10Z</time>
      </trkpt>
      <trkpt lat="46.29667" lon="-0.24224">
        <ele>110</ele>
        <time>2009-03-19T10:42:15Z</time>
      </trkpt>
      <trkpt lat="46.29661" lon="-0.24216">
        <ele>115</ele>
        <time>2009-03-19T10:42:20Z</time>
      </trkpt>
      <trkpt lat="46.29655" lon="-0.24206">
        <ele>115</ele>
        <time>2009-03-19T10:42:25Z</time>
      </trkpt>
      <trkpt lat="46.2965" lon="-0.24195">
        <ele>115</ele>
        <time>2009-03-19T10:42:30Z</time>
      </trkpt>
      <trkpt lat="46.29645" lon="-0.2418">
        <ele>114</ele>
        <time>2009-03-19T10:42:35Z</time>
      </trkpt>
      <trkpt lat="46.2964" lon="-0.24163">
        <ele>113</ele>
        <time>2009-03-19T10:42:40Z</time>
      </trkpt>
      <trkpt lat="46.29637" lon="-0.24146">
        <ele>113</ele>
        <time>2009-03-19T10:42:45Z</time>
      </trkpt>
      <trkpt lat="46.29632" lon="-0.24127">
        <ele>113</ele>
        <time>2009-03-19T10:42:50Z</time>
      </trkpt>
      <trkpt lat="46.29626" lon="-0.24112">
        <ele>113</ele>
        <time>2009-03-19T10:42:55Z</time>
      </trkpt>
      <trkpt lat="46.29622" lon="-0.24097">
        <ele>114</ele>
        <time>2009-03-19T10:43:00Z</time>
      </trkpt>
      <trkpt lat="46.29616" lon="-0.24079">
        <ele>112</ele>
        <time>2009-03-19T10:43:05Z</time>
      </trkpt>
      <trkpt lat="46.29608" lon="-0.24061">
        <ele>112</ele>
        <time>2009-03-19T10:43:10Z</time>
      </trkpt>
      <trkpt lat="46.29599" lon="-0.24041">
        <ele>112</ele>
        <time>2009-03-19T10:43:15Z</time>
      </trkpt>
      <trkpt lat="46.29591" lon="-0.24021">
        <ele>113</ele>
        <time>2009-03-19T10:43:20Z</time>
      </trkpt>
      <trkpt lat="46.29584" lon="-0.24003">
        <ele>116</ele>
        <time>2009-03-19T10:43:25Z</time>
      </trkpt>
      <trkpt lat="46.29576" lon="-0.23983">
        <ele>119</ele>
        <time>2009-03-19T10:43:30Z</time>
      </trkpt>
      <trkpt lat="46.29568" lon="-0.23962">
        <ele>120</ele>
        <time>2009-03-19T10:43:35Z</time>
      </trkpt>
      <trkpt lat="46.2956" lon="-0.23942">
        <ele>120</ele>
        <time>2009-03-19T10:43:40Z</time>
      </trkpt>
      <trkpt lat="46.29552" lon="-0.23921">
        <ele>120</ele>
        <time>2009-03-19T10:43:45Z</time>
      </trkpt>
      <trkpt lat="46.29544" lon="-0.239">
        <ele>121</ele>
        <time>2009-03-19T10:43:50Z</time>
      </trkpt>
      <trkpt lat="46.29535" lon="-0.23877">
        <ele>121</ele>
        <time>2009-03-19T10:43:55Z</time>
      </trkpt>
      <trkpt lat="46.29532" lon="-0.23854">
        <ele>122</ele>
        <time>2009-03-19T10:44:00Z</time>
      </trkpt>
      <trkpt lat="46.2953" lon="-0.23832">
        <ele>123</ele>
        <time>2009-03-19T10:44:05Z</time>
      </trkpt>
      <trkpt lat="46.2953" lon="-0.23805">
        <ele>122</ele>
        <time>2009-03-19T10:44:10Z</time>
      </trkpt>
      <trkpt lat="46.29529" lon="-0.23778">
        <ele>123</ele>
        <time>2009-03-19T10:44:15Z</time>
      </trkpt>
      <trkpt lat="46.29528" lon="-0.23754">
        <ele>124</ele>
        <time>2009-03-19T10:44:20Z</time>
      </trkpt>
      <trkpt lat="46.29529" lon="-0.23728">
        <ele>124</ele>
        <time>2009-03-19T10:44:25Z</time>
      </trkpt>
      <trkpt lat="46.29529" lon="-0.23699">
        <ele>124</ele>
        <time>2009-03-19T10:44:30Z</time>
      </trkpt>
      <trkpt lat="46.29521" lon="-0.23672">
        <ele>126</ele>
        <time>2009-03-19T10:44:35Z</time>
      </trkpt>
      <trkpt lat="46.29518" lon="-0.23649">
        <ele>127</ele>
        <time>2009-03-19T10:44:40Z</time>
      </trkpt>
      <trkpt lat="46.29516" lon="-0.23628">
        <ele>127</ele>
        <time>2009-03-19T10:44:45Z</time>
      </trkpt>
      <trkpt lat="46.29517" lon="-0.23604">
        <ele>128</ele>
        <time>2009-03-19T10:44:50Z</time>
      </trkpt>
      <trkpt lat="46.29521" lon="-0.23582">
        <ele>129</ele>
        <time>2009-03-19T10:44:55Z</time>
      </trkpt>
      <trkpt lat="46.29523" lon="-0.23559">
        <ele>128</ele>
        <time>2009-03-19T10:45:00Z</time>
      </trkpt>
      <trkpt lat="46.29524" lon="-0.23535">
        <ele>128</ele>
        <time>2009-03-19T10:45:05Z</time>
      </trkpt>
      <trkpt lat="46.29523" lon="-0.2351">
        <ele>129</ele>
        <time>2009-03-19T10:45:10Z</time>
      </trkpt>
      <trkpt lat="46.2952" lon="-0.23487">
        <ele>130</ele>
        <time>2009-03-19T10:45:15Z</time>
      </trkpt>
      <trkpt lat="46.29518" lon="-0.23463">
        <ele>130</ele>
        <time>2009-03-19T10:45:20Z</time>
      </trkpt>
      <trkpt lat="46.29509" lon="-0.23444">
        <ele>130</ele>
        <time>2009-03-19T10:45:25Z</time>
      </trkpt>
      <trkpt lat="46.29494" lon="-0.23432">
        <ele>133</ele>
        <time>2009-03-19T10:45:30Z</time>
      </trkpt>
      <trkpt lat="46.2948" lon="-0.23418">
        <ele>133</ele>
        <time>2009-03-19T10:45:35Z</time>
      </trkpt>
      <trkpt lat="46.2947" lon="-0.23405">
        <ele>133</ele>
        <time>2009-03-19T10:45:40Z</time>
      </trkpt>
      <trkpt lat="46.29464" lon="-0.23395">
        <ele>132</ele>
        <time>2009-03-19T10:45:45Z</time>
      </trkpt>
      <trkpt lat="46.29463" lon="-0.23389">
        <ele>132</ele>
        <time>2009-03-19T10:45:50Z</time>
      </trkpt>
      <trkpt lat="46.2947" lon="-0.23388">
        <ele>132</ele>
        <time>2009-03-19T10:45:55Z</time>
      </trkpt>
      <trkpt lat="46.29478" lon="-0.23385">
        <ele>132</ele>
        <time>2009-03-19T10:46:00Z</time>
      </trkpt>
      <trkpt lat="46.29488" lon="-0.23383">
        <ele>132</ele>
        <time>2009-03-19T10:46:05Z</time>
      </trkpt>
      <trkpt lat="46.29503" lon="-0.2338">
        <ele>129</ele>
        <time>2009-03-19T10:46:10Z</time>
      </trkpt>
      <trkpt lat="46.2952" lon="-0.23379">
        <ele>128</ele>
        <time>2009-03-19T10:46:15Z</time>
      </trkpt>
      <trkpt lat="46.2954" lon="-0.23377">
        <ele>127</ele>
        <time>2009-03-19T10:46:20Z</time>
      </trkpt>
      <trkpt lat="46.29561" lon="-0.23373">
        <ele>126</ele>
        <time>2009-03-19T10:46:25Z</time>
      </trkpt>
      <trkpt lat="46.29576" lon="-0.2335">
        <ele>125</ele>
        <time>2009-03-19T10:46:30Z</time>
      </trkpt>
      <trkpt lat="46.29586" lon="-0.23318">
        <ele>119</ele>
        <time>2009-03-19T10:46:35Z</time>
      </trkpt>
      <trkpt lat="46.296" lon="-0.23282">
        <ele>116</ele>
        <time>2009-03-19T10:46:40Z</time>
      </trkpt>
      <trkpt lat="46.29616" lon="-0.23251">
        <ele>115</ele>
        <time>2009-03-19T10:46:45Z</time>
      </trkpt>
      <trkpt lat="46.29627" lon="-0.23232">
        <ele>115</ele>
        <time>2009-03-19T10:46:50Z</time>
      </trkpt>
      <trkpt lat="46.29632" lon="-0.23223">
        <ele>115</ele>
        <time>2009-03-19T10:46:55Z</time>
      </trkpt>
      <trkpt lat="46.29636" lon="-0.2321">
        <ele>114</ele>
        <time>2009-03-19T10:47:00Z</time>
      </trkpt>
      <trkpt lat="46.29642" lon="-0.23197">
        <ele>114</ele>
        <time>2009-03-19T10:47:05Z</time>
      </trkpt>
      <trkpt lat="46.2965" lon="-0.23184">
        <ele>113</ele>
        <time>2009-03-19T10:47:10Z</time>
      </trkpt>
      <trkpt lat="46.29667" lon="-0.23167">
        <ele>110</ele>
        <time>2009-03-19T10:47:15Z</time>
      </trkpt>
      <trkpt lat="46.2968" lon="-0.23148">
        <ele>109</ele>
        <time>2009-03-19T10:47:20Z</time>
      </trkpt>
      <trkpt lat="46.29693" lon="-0.23125">
        <ele>109</ele>
        <time>2009-03-19T10:47:25Z</time>
      </trkpt>
      <trkpt lat="46.29704" lon="-0.231">
        <ele>108</ele>
        <time>2009-03-19T10:47:30Z</time>
      </trkpt>
      <trkpt lat="46.29713" lon="-0.23074">
        <ele>109</ele>
        <time>2009-03-19T10:47:35Z</time>
      </trkpt>
      <trkpt lat="46.29725" lon="-0.23051">
        <ele>108</ele>
        <time>2009-03-19T10:47:40Z</time>
      </trkpt>
      <trkpt lat="46.29734" lon="-0.23032">
        <ele>108</ele>
        <time>2009-03-19T10:47:45Z</time>
      </trkpt>
      <trkpt lat="46.29739" lon="-0.23017">
        <ele>107</ele>
        <time>2009-03-19T10:47:50Z</time>
      </trkpt>
      <trkpt lat="46.29739" lon="-0.23008">
        <ele>107</ele>
        <time>2009-03-19T10:47:55Z</time>
      </trkpt>
      <trkpt lat="46.29737" lon="-0.22998">
        <ele>107</ele>
        <time>2009-03-19T10:48:00Z</time>
      </trkpt>
      <trkpt lat="46.29728" lon="-0.22999">
        <ele>107</ele>
        <time>2009-03-19T10:48:05Z</time>
      </trkpt>
      <trkpt lat="46.29725" lon="-0.22994">
        <ele>108</ele>
        <time>2009-03-19T10:48:10Z</time>
      </trkpt>
      <trkpt lat="46.29724" lon="-0.22991">
        <ele>108</ele>
        <time>2009-03-19T10:48:15Z</time>
      </trkpt>
      <trkpt lat="46.29723" lon="-0.22991">
        <ele>108</ele>
        <time>2009-03-19T10:48:20Z</time>
      </trkpt>
      <trkpt lat="46.2972" lon="-0.22987">
        <ele>108</ele>
        <time>2009-03-19T10:48:25Z</time>
      </trkpt>
      <trkpt lat="46.29716" lon="-0.22983">
        <ele>108</ele>
        <time>2009-03-19T10:48:30Z</time>
      </trkpt>
      <trkpt lat="46.29713" lon="-0.22979">
        <ele>109</ele>
        <time>2009-03-19T10:48:35Z</time>
      </trkpt>
      <trkpt lat="46.29712" lon="-0.22974">
        <ele>109</ele>
        <time>2009-03-19T10:48:40Z</time>
      </trkpt>
      <trkpt lat="46.2971" lon="-0.22969">
        <ele>109</ele>
        <time>2009-03-19T10:48:45Z</time>
      </trkpt>
      <trkpt lat="46.29703" lon="-0.22962">
        <ele>109</ele>
        <time>2009-03-19T10:48:50Z</time>
      </trkpt>
      <trkpt lat="46.29697" lon="-0.22954">
        <ele>109</ele>
        <time>2009-03-19T10:48:55Z</time>
      </trkpt>
      <trkpt lat="46.29687" lon="-0.22947">
        <ele>109</ele>
        <time>2009-03-19T10:49:00Z</time>
      </trkpt>
      <trkpt lat="46.29676" lon="-0.22932">
        <ele>109</ele>
        <time>2009-03-19T10:49:05Z</time>
      </trkpt>
      <trkpt lat="46.29666" lon="-0.22913">
        <ele>109</ele>
        <time>2009-03-19T10:49:10Z</time>
      </trkpt>
      <trkpt lat="46.29658" lon="-0.22899">
        <ele>111</ele>
        <time>2009-03-19T10:49:15Z</time>
      </trkpt>
      <trkpt lat="46.2965" lon="-0.22878">
        <ele>111</ele>
        <time>2009-03-19T10:49:20Z</time>
      </trkpt>
      <trkpt lat="46.2964" lon="-0.22863">
        <ele>111</ele>
        <time>2009-03-19T10:49:25Z</time>
      </trkpt>
      <trkpt lat="46.29634" lon="-0.22849">
        <ele>111</ele>
        <time>2009-03-19T10:49:30Z</time>
      </trkpt>
      <trkpt lat="46.29629" lon="-0.22833">
        <ele>109</ele>
        <time>2009-03-19T10:49:35Z</time>
      </trkpt>
      <trkpt lat="46.29621" lon="-0.22816">
        <ele>109</ele>
        <time>2009-03-19T10:49:40Z</time>
      </trkpt>
      <trkpt lat="46.29617" lon="-0.22816">
        <ele>109</ele>
        <time>2009-03-19T10:49:45Z</time>
      </trkpt>
      <trkpt lat="46.29618" lon="-0.22813">
        <ele>109</ele>
        <time>2009-03-19T10:49:50Z</time>
      </trkpt>
      <trkpt lat="46.29615" lon="-0.22805">
        <ele>109</ele>
        <time>2009-03-19T10:49:55Z</time>
      </trkpt>
      <trkpt lat="46.29617" lon="-0.22794">
        <ele>109</ele>
        <time>2009-03-19T10:50:00Z</time>
      </trkpt>
      <trkpt lat="46.29614" lon="-0.2279">
        <ele>109</ele>
        <time>2009-03-19T10:50:05Z</time>
      </trkpt>
      <trkpt lat="46.29616" lon="-0.22781">
        <ele>109</ele>
        <time>2009-03-19T10:50:10Z</time>
      </trkpt>
      <trkpt lat="46.29615" lon="-0.22784">
        <ele>109</ele>
        <time>2009-03-19T10:50:15Z</time>
      </trkpt>
      <trkpt lat="46.29614" lon="-0.22789">
        <ele>109</ele>
        <time>2009-03-19T10:50:20Z</time>
      </trkpt>
      <trkpt lat="46.29612" lon="-0.2279">
        <ele>109</ele>
        <time>2009-03-19T10:50:25Z</time>
      </trkpt>
      <trkpt lat="46.2961" lon="-0.22779">
        <ele>109</ele>
        <time>2009-03-19T10:50:30Z</time>
      </trkpt>
      <trkpt lat="46.29607" lon="-0.2277">
        <ele>109</ele>
        <time>2009-03-19T10:50:35Z</time>
      </trkpt>
      <trkpt lat="46.29605" lon="-0.22761">
        <ele>109</ele>
        <time>2009-03-19T10:50:40Z</time>
      </trkpt>
      <trkpt lat="46.29602" lon="-0.22753">
        <ele>110</ele>
        <time>2009-03-19T10:50:45Z</time>
      </trkpt>
      <trkpt lat="46.29597" lon="-0.22747">
        <ele>110</ele>
        <time>2009-03-19T10:50:50Z</time>
      </trkpt>
      <trkpt lat="46.29596" lon="-0.2274">
        <ele>110</ele>
        <time>2009-03-19T10:50:55Z</time>
      </trkpt>
      <trkpt lat="46.29594" lon="-0.22731">
        <ele>109</ele>
        <time>2009-03-19T10:51:00Z</time>
      </trkpt>
      <trkpt lat="46.29594" lon="-0.22724">
        <ele>109</ele>
        <time>2009-03-19T10:51:05Z</time>
      </trkpt>
      <trkpt lat="46.29594" lon="-0.22717">
        <ele>109</ele>
        <time>2009-03-19T10:51:10Z</time>
      </trkpt>
      <trkpt lat="46.29595" lon="-0.22709">
        <ele>109</ele>
        <time>2009-03-19T10:51:15Z</time>
      </trkpt>
      <trkpt lat="46.29595" lon="-0.22701">
        <ele>109</ele>
        <time>2009-03-19T10:51:20Z</time>
      </trkpt>
      <trkpt lat="46.29596" lon="-0.22688">
        <ele>109</ele>
        <time>2009-03-19T10:51:25Z</time>
      </trkpt>
      <trkpt lat="46.29594" lon="-0.22669">
        <ele>110</ele>
        <time>2009-03-19T10:51:30Z</time>
      </trkpt>
      <trkpt lat="46.29591" lon="-0.22647">
        <ele>109</ele>
        <time>2009-03-19T10:51:35Z</time>
      </trkpt>
      <trkpt lat="46.29588" lon="-0.22623">
        <ele>109</ele>
        <time>2009-03-19T10:51:40Z</time>
      </trkpt>
      <trkpt lat="46.29587" lon="-0.22601">
        <ele>109</ele>
        <time>2009-03-19T10:51:45Z</time>
      </trkpt>
      <trkpt lat="46.2958" lon="-0.22578">
        <ele>112</ele>
        <time>2009-03-19T10:51:50Z</time>
      </trkpt>
      <trkpt lat="46.29577" lon="-0.22558">
        <ele>114</ele>
        <time>2009-03-19T10:51:55Z</time>
      </trkpt>
      <trkpt lat="46.29575" lon="-0.2254">
        <ele>114</ele>
        <time>2009-03-19T10:52:00Z</time>
      </trkpt>
      <trkpt lat="46.29573" lon="-0.22525">
        <ele>114</ele>
        <time>2009-03-19T10:52:05Z</time>
      </trkpt>
      <trkpt lat="46.29571" lon="-0.2251">
        <ele>113</ele>
        <time>2009-03-19T10:52:10Z</time>
      </trkpt>
      <trkpt lat="46.29567" lon="-0.2249">
        <ele>112</ele>
        <time>2009-03-19T10:52:15Z</time>
      </trkpt>
      <trkpt lat="46.29562" lon="-0.22467">
        <ele>113</ele>
        <time>2009-03-19T10:52:20Z</time>
      </trkpt>
      <trkpt lat="46.29557" lon="-0.22448">
        <ele>112</ele>
        <time>2009-03-19T10:52:25Z</time>
      </trkpt>
      <trkpt lat="46.29551" lon="-0.22426">
        <ele>112</ele>
        <time>2009-03-19T10:52:30Z</time>
      </trkpt>
      <trkpt lat="46.29548" lon="-0.22407">
        <ele>111</ele>
        <time>2009-03-19T10:52:35Z</time>
      </trkpt>
      <trkpt lat="46.29545" lon="-0.22392">
        <ele>111</ele>
        <time>2009-03-19T10:52:40Z</time>
      </trkpt>
      <trkpt lat="46.29539" lon="-0.22374">
        <ele>112</ele>
        <time>2009-03-19T10:52:45Z</time>
      </trkpt>
      <trkpt lat="46.29535" lon="-0.22354">
        <ele>112</ele>
        <time>2009-03-19T10:52:50Z</time>
      </trkpt>
      <trkpt lat="46.29532" lon="-0.22335">
        <ele>113</ele>
        <time>2009-03-19T10:52:55Z</time>
      </trkpt>
      <trkpt lat="46.29529" lon="-0.22323">
        <ele>113</ele>
        <time>2009-03-19T10:53:00Z</time>
      </trkpt>
      <trkpt lat="46.2953" lon="-0.22315">
        <ele>113</ele>
        <time>2009-03-19T10:53:05Z</time>
      </trkpt>
      <trkpt lat="46.29528" lon="-0.22306">
        <ele>113</ele>
        <time>2009-03-19T10:53:10Z</time>
      </trkpt>
      <trkpt lat="46.29528" lon="-0.22299">
        <ele>113</ele>
        <time>2009-03-19T10:53:15Z</time>
      </trkpt>
      <trkpt lat="46.29524" lon="-0.22291">
        <ele>113</ele>
        <time>2009-03-19T10:53:20Z</time>
      </trkpt>
      <trkpt lat="46.29519" lon="-0.22281">
        <ele>113</ele>
        <time>2009-03-19T10:53:25Z</time>
      </trkpt>
      <trkpt lat="46.29516" lon="-0.22266">
        <ele>114</ele>
        <time>2009-03-19T10:53:30Z</time>
      </trkpt>
      <trkpt lat="46.29514" lon="-0.22248">
        <ele>115</ele>
        <time>2009-03-19T10:53:35Z</time>
      </trkpt>
      <trkpt lat="46.29518" lon="-0.22237">
        <ele>114</ele>
        <time>2009-03-19T10:53:40Z</time>
      </trkpt>
      <trkpt lat="46.29524" lon="-0.22232">
        <ele>113</ele>
        <time>2009-03-19T10:53:45Z</time>
      </trkpt>
      <trkpt lat="46.29522" lon="-0.22222">
        <ele>113</ele>
        <time>2009-03-19T10:53:50Z</time>
      </trkpt>
      <trkpt lat="46.29528" lon="-0.22215">
        <ele>112</ele>
        <time>2009-03-19T10:53:55Z</time>
      </trkpt>
      <trkpt lat="46.29527" lon="-0.22205">
        <ele>112</ele>
        <time>2009-03-19T10:54:00Z</time>
      </trkpt>
      <trkpt lat="46.29529" lon="-0.22199">
        <ele>112</ele>
        <time>2009-03-19T10:54:05Z</time>
      </trkpt>
      <trkpt lat="46.29528" lon="-0.22191">
        <ele>112</ele>
        <time>2009-03-19T10:54:10Z</time>
      </trkpt>
      <trkpt lat="46.29528" lon="-0.22183">
        <ele>112</ele>
        <time>2009-03-19T10:54:15Z</time>
      </trkpt>
      <trkpt lat="46.29524" lon="-0.22168">
        <ele>113</ele>
        <time>2009-03-19T10:54:20Z</time>
      </trkpt>
      <trkpt lat="46.29526" lon="-0.22153">
        <ele>111</ele>
        <time>2009-03-19T10:54:25Z</time>
      </trkpt>
      <trkpt lat="46.29526" lon="-0.22137">
        <ele>111</ele>
        <time>2009-03-19T10:54:30Z</time>
      </trkpt>
      <trkpt lat="46.29525" lon="-0.22121">
        <ele>110</ele>
        <time>2009-03-19T10:54:35Z</time>
      </trkpt>
      <trkpt lat="46.29524" lon="-0.22108">
        <ele>110</ele>
        <time>2009-03-19T10:54:40Z</time>
      </trkpt>
      <trkpt lat="46.29528" lon="-0.22091">
        <ele>110</ele>
        <time>2009-03-19T10:54:45Z</time>
      </trkpt>
      <trkpt lat="46.29533" lon="-0.22073">
        <ele>109</ele>
        <time>2009-03-19T10:54:50Z</time>
      </trkpt>
      <trkpt lat="46.29534" lon="-0.22054">
        <ele>109</ele>
        <time>2009-03-19T10:54:55Z</time>
      </trkpt>
      <trkpt lat="46.29538" lon="-0.22037">
        <ele>109</ele>
        <time>2009-03-19T10:55:00Z</time>
      </trkpt>
      <trkpt lat="46.29543" lon="-0.22019">
        <ele>110</ele>
        <time>2009-03-19T10:55:05Z</time>
      </trkpt>
      <trkpt lat="46.29546" lon="-0.22003">
        <ele>109</ele>
        <time>2009-03-19T10:55:10Z</time>
      </trkpt>
      <trkpt lat="46.29548" lon="-0.21989">
        <ele>111</ele>
        <time>2009-03-19T10:55:15Z</time>
      </trkpt>
      <trkpt lat="46.29553" lon="-0.21977">
        <ele>111</ele>
        <time>2009-03-19T10:55:20Z</time>
      </trkpt>
      <trkpt lat="46.29562" lon="-0.21975">
        <ele>111</ele>
        <time>2009-03-19T10:55:25Z</time>
      </trkpt>
      <trkpt lat="46.2957" lon="-0.21972">
        <ele>111</ele>
        <time>2009-03-19T10:55:30Z</time>
      </trkpt>
      <trkpt lat="46.2958" lon="-0.21972">
        <ele>111</ele>
        <time>2009-03-19T10:55:35Z</time>
      </trkpt>
      <trkpt lat="46.29589" lon="-0.21971">
        <ele>110</ele>
        <time>2009-03-19T10:55:40Z</time>
      </trkpt>
      <trkpt lat="46.29595" lon="-0.21967">
        <ele>110</ele>
        <time>2009-03-19T10:55:45Z</time>
      </trkpt>
      <trkpt lat="46.29604" lon="-0.21964">
        <ele>110</ele>
        <time>2009-03-19T10:55:50Z</time>
      </trkpt>
      <trkpt lat="46.29613" lon="-0.21962">
        <ele>110</ele>
        <time>2009-03-19T10:55:55Z</time>
      </trkpt>
      <trkpt lat="46.29624" lon="-0.2196">
        <ele>111</ele>
        <time>2009-03-19T10:56:00Z</time>
      </trkpt>
      <trkpt lat="46.29632" lon="-0.21957">
        <ele>111</ele>
        <time>2009-03-19T10:56:05Z</time>
      </trkpt>
      <trkpt lat="46.29641" lon="-0.2195">
        <ele>111</ele>
        <time>2009-03-19T10:56:10Z</time>
      </trkpt>
      <trkpt lat="46.29645" lon="-0.21947">
        <ele>111</ele>
        <time>2009-03-19T10:56:15Z</time>
      </trkpt>
      <trkpt lat="46.29653" lon="-0.21938">
        <ele>111</ele>
        <time>2009-03-19T10:56:20Z</time>
      </trkpt>
      <trkpt lat="46.29658" lon="-0.21929">
        <ele>112</ele>
        <time>2009-03-19T10:56:25Z</time>
      </trkpt>
      <trkpt lat="46.2966" lon="-0.21919">
        <ele>112</ele>
        <time>2009-03-19T10:56:30Z</time>
      </trkpt>
      <trkpt lat="46.29664" lon="-0.2191">
        <ele>112</ele>
        <time>2009-03-19T10:56:35Z</time>
      </trkpt>
      <trkpt lat="46.29669" lon="-0.21901">
        <ele>114</ele>
        <time>2009-03-19T10:56:40Z</time>
      </trkpt>
      <trkpt lat="46.29671" lon="-0.21898">
        <ele>114</ele>
        <time>2009-03-19T10:56:45Z</time>
      </trkpt>
      <trkpt lat="46.29672" lon="-0.21894">
        <ele>115</ele>
        <time>2009-03-19T10:56:50Z</time>
      </trkpt>
      <trkpt lat="46.29672" lon="-0.21892">
        <ele>115</ele>
        <time>2009-03-19T10:56:55Z</time>
      </trkpt>
      <trkpt lat="46.29676" lon="-0.2189">
        <ele>115</ele>
        <time>2009-03-19T10:57:00Z</time>
      </trkpt>
      <trkpt lat="46.29678" lon="-0.21885">
        <ele>115</ele>
        <time>2009-03-19T10:57:05Z</time>
      </trkpt>
      <trkpt lat="46.29684" lon="-0.21873">
        <ele>115</ele>
        <time>2009-03-19T10:57:10Z</time>
      </trkpt>
      <trkpt lat="46.29688" lon="-0.21867">
        <ele>115</ele>
        <time>2009-03-19T10:57:15Z</time>
      </trkpt>
      <trkpt lat="46.29697" lon="-0.2186">
        <ele>116</ele>
        <time>2009-03-19T10:57:20Z</time>
      </trkpt>
      <trkpt lat="46.29703" lon="-0.21859">
        <ele>116</ele>
        <time>2009-03-19T10:57:25Z</time>
      </trkpt>
      <trkpt lat="46.29711" lon="-0.21857">
        <ele>117</ele>
        <time>2009-03-19T10:57:30Z</time>
      </trkpt>
      <trkpt lat="46.29718" lon="-0.21856">
        <ele>117</ele>
        <time>2009-03-19T10:57:35Z</time>
      </trkpt>
      <trkpt lat="46.29729" lon="-0.2185">
        <ele>118</ele>
        <time>2009-03-19T10:57:40Z</time>
      </trkpt>
      <trkpt lat="46.29735" lon="-0.2185">
        <ele>119</ele>
        <time>2009-03-19T10:57:45Z</time>
      </trkpt>
      <trkpt lat="46.29741" lon="-0.21849">
        <ele>119</ele>
        <time>2009-03-19T10:57:50Z</time>
      </trkpt>
      <trkpt lat="46.29744" lon="-0.21852">
        <ele>119</ele>
        <time>2009-03-19T10:57:55Z</time>
      </trkpt>
      <trkpt lat="46.29749" lon="-0.21852">
        <ele>120</ele>
        <time>2009-03-19T10:58:00Z</time>
      </trkpt>
      <trkpt lat="46.29757" lon="-0.2185">
        <ele>124</ele>
        <time>2009-03-19T10:58:05Z</time>
      </trkpt>
      <trkpt lat="46.29763" lon="-0.2185">
        <ele>125</ele>
        <time>2009-03-19T10:58:10Z</time>
      </trkpt>
      <trkpt lat="46.2977" lon="-0.21846">
        <ele>125</ele>
        <time>2009-03-19T10:58:15Z</time>
      </trkpt>
      <trkpt lat="46.29779" lon="-0.21845">
        <ele>126</ele>
        <time>2009-03-19T10:58:20Z</time>
      </trkpt>
      <trkpt lat="46.29784" lon="-0.21843">
        <ele>126</ele>
        <time>2009-03-19T10:58:25Z</time>
      </trkpt>
      <trkpt lat="46.29791" lon="-0.21836">
        <ele>127</ele>
        <time>2009-03-19T10:58:30Z</time>
      </trkpt>
      <trkpt lat="46.29798" lon="-0.21833">
        <ele>126</ele>
        <time>2009-03-19T10:58:35Z</time>
      </trkpt>
      <trkpt lat="46.29805" lon="-0.2183">
        <ele>127</ele>
        <time>2009-03-19T10:58:40Z</time>
      </trkpt>
      <trkpt lat="46.29812" lon="-0.21827">
        <ele>128</ele>
        <time>2009-03-19T10:58:45Z</time>
      </trkpt>
      <trkpt lat="46.29818" lon="-0.21825">
        <ele>128</ele>
        <time>2009-03-19T10:58:50Z</time>
      </trkpt>
      <trkpt lat="46.29825" lon="-0.21825">
        <ele>129</ele>
        <time>2009-03-19T10:58:55Z</time>
      </trkpt>
      <trkpt lat="46.29832" lon="-0.21821">
        <ele>129</ele>
        <time>2009-03-19T10:59:00Z</time>
      </trkpt>
      <trkpt lat="46.29839" lon="-0.21818">
        <ele>132</ele>
        <time>2009-03-19T10:59:05Z</time>
      </trkpt>
      <trkpt lat="46.29846" lon="-0.21815">
        <ele>133</ele>
        <time>2009-03-19T10:59:10Z</time>
      </trkpt>
      <trkpt lat="46.29853" lon="-0.21814">
        <ele>133</ele>
        <time>2009-03-19T10:59:15Z</time>
      </trkpt>
      <trkpt lat="46.2986" lon="-0.21812">
        <ele>133</ele>
        <time>2009-03-19T10:59:20Z</time>
      </trkpt>
      <trkpt lat="46.29869" lon="-0.21809">
        <ele>134</ele>
        <time>2009-03-19T10:59:25Z</time>
      </trkpt>
      <trkpt lat="46.29876" lon="-0.21807">
        <ele>134</ele>
        <time>2009-03-19T10:59:30Z</time>
      </trkpt>
      <trkpt lat="46.29883" lon="-0.21797">
        <ele>134</ele>
        <time>2009-03-19T10:59:35Z</time>
      </trkpt>
      <trkpt lat="46.29896" lon="-0.21785">
        <ele>135</ele>
        <time>2009-03-19T10:59:40Z</time>
      </trkpt>
      <trkpt lat="46.29906" lon="-0.21773">
        <ele>136</ele>
        <time>2009-03-19T10:59:45Z</time>
      </trkpt>
      <trkpt lat="46.29914" lon="-0.21761">
        <ele>137</ele>
        <time>2009-03-19T10:59:50Z</time>
      </trkpt>
      <trkpt lat="46.29923" lon="-0.21745">
        <ele>138</ele>
        <time>2009-03-19T10:59:55Z</time>
      </trkpt>
      <trkpt lat="46.29929" lon="-0.21725">
        <ele>138</ele>
        <time>2009-03-19T11:00:00Z</time>
      </trkpt>
      <trkpt lat="46.29934" lon="-0.21705">
        <ele>138</ele>
        <time>2009-03-19T11:00:05Z</time>
      </trkpt>
      <trkpt lat="46.29936" lon="-0.21684">
        <ele>138</ele>
        <time>2009-03-19T11:00:10Z</time>
      </trkpt>
      <trkpt lat="46.29939" lon="-0.21662">
        <ele>137</ele>
        <time>2009-03-19T11:00:15Z</time>
      </trkpt>
      <trkpt lat="46.29942" lon="-0.21641">
        <ele>137</ele>
        <time>2009-03-19T11:00:20Z</time>
      </trkpt>
      <trkpt lat="46.29943" lon="-0.21616">
        <ele>137</ele>
        <time>2009-03-19T11:00:25Z</time>
      </trkpt>
      <trkpt lat="46.29945" lon="-0.21584">
        <ele>136</ele>
        <time>2009-03-19T11:00:30Z</time>
      </trkpt>
      <trkpt lat="46.29946" lon="-0.21551">
        <ele>135</ele>
        <time>2009-03-19T11:00:35Z</time>
      </trkpt>
      <trkpt lat="46.29948" lon="-0.21515">
        <ele>135</ele>
        <time>2009-03-19T11:00:40Z</time>
      </trkpt>
      <trkpt lat="46.29947" lon="-0.21475">
        <ele>134</ele>
        <time>2009-03-19T11:00:45Z</time>
      </trkpt>
      <trkpt lat="46.29947" lon="-0.21435">
        <ele>134</ele>
        <time>2009-03-19T11:00:50Z</time>
      </trkpt>
      <trkpt lat="46.2995" lon="-0.21395">
        <ele>134</ele>
        <time>2009-03-19T11:00:55Z</time>
      </trkpt>
      <trkpt lat="46.29961" lon="-0.21359">
        <ele>134</ele>
        <time>2009-03-19T11:01:00Z</time>
      </trkpt>
      <trkpt lat="46.29979" lon="-0.21347">
        <ele>135</ele>
        <time>2009-03-19T11:01:05Z</time>
      </trkpt>
      <trkpt lat="46.29994" lon="-0.21341">
        <ele>137</ele>
        <time>2009-03-19T11:01:10Z</time>
      </trkpt>
      <trkpt lat="46.29995" lon="-0.21327">
        <ele>137</ele>
        <time>2009-03-19T11:01:15Z</time>
      </trkpt>
      <trkpt lat="46.29979" lon="-0.21311">
        <ele>135</ele>
        <time>2009-03-19T11:01:20Z</time>
      </trkpt>
      <trkpt lat="46.29968" lon="-0.21275">
        <ele>133</ele>
        <time>2009-03-19T11:01:25Z</time>
      </trkpt>
      <trkpt lat="46.29951" lon="-0.21236">
        <ele>131</ele>
        <time>2009-03-19T11:01:30Z</time>
      </trkpt>
      <trkpt lat="46.29928" lon="-0.21201">
        <ele>130</ele>
        <time>2009-03-19T11:01:35Z</time>
      </trkpt>
      <trkpt lat="46.29932" lon="-0.21151">
        <ele>126</ele>
        <time>2009-03-19T11:01:40Z</time>
      </trkpt>
      <trkpt lat="46.29946" lon="-0.21109">
        <ele>125</ele>
        <time>2009-03-19T11:01:45Z</time>
      </trkpt>
      <trkpt lat="46.29965" lon="-0.21077">
        <ele>122</ele>
        <time>2009-03-19T11:01:50Z</time>
      </trkpt>
      <trkpt lat="46.29981" lon="-0.21045">
        <ele>122</ele>
        <time>2009-03-19T11:01:55Z</time>
      </trkpt>
      <trkpt lat="46.29984" lon="-0.21039">
        <ele>121</ele>
        <time>2009-03-19T11:01:56Z</time>
      </trkpt>
      <trkpt lat="46.29986" lon="-0.21037">
        <ele>121</ele>
      </trkpt>
      <trkpt lat="46.30026" lon="-0.20974">
        <ele>125</ele>
      </trkpt>
      <trkpt lat="46.30057" lon="-0.20897">
        <ele>123</ele>
      </trkpt>
    </trkseg>
  </trk>
</gpx>